createdAt,value
2023-09-25T00:01:51.214Z,101696.97
2023-09-25T00:04:32.488Z,101697.78
2023-09-25T00:07:06.657Z,101701.28
2023-09-25T00:09:36.649Z,101702.31
2023-09-25T00:12:03.912Z,101703.28
2023-09-25T00:14:31.002Z,101700.25
2023-09-25T00:16:58.009Z,101702.09
2023-09-25T00:19:27.996Z,101704.88
2023-09-25T00:22:00.879Z,101706.56
2023-09-25T00:24:28.777Z,101708.75
2023-09-25T00:26:55.872Z,101706.06
2023-09-25T00:29:22.880Z,101705.31
2023-09-25T00:31:54.153Z,101704.31
2023-09-25T00:34:21.456Z,101703.97
2023-09-25T00:36:48.534Z,101698.72
2023-09-25T00:39:17.858Z,101695.09
2023-09-25T00:41:53.890Z,101694.91
2023-09-25T00:44:21.185Z,101691.44
2023-09-25T00:46:48.294Z,101695.66
2023-09-25T00:49:16.000Z,101698.88
2023-09-25T00:51:50.710Z,101698.28
2023-09-25T00:54:35.349Z,101703.97
2023-09-25T00:57:07.634Z,101703.84
2023-09-25T00:59:34.656Z,101695.97
2023-09-25T01:02:08.142Z,101703.72
2023-09-25T01:04:35.368Z,101701.72
2023-09-25T01:07:07.379Z,101690.03
2023-09-25T01:09:34.365Z,101698.44
2023-09-25T01:12:02.642Z,101697.59
2023-09-25T01:14:30.036Z,101694.78
2023-09-25T01:17:01.117Z,101692.56
2023-09-25T01:19:29.260Z,101690.81
2023-09-25T01:21:58.010Z,101696.00
2023-09-25T01:24:24.938Z,101684.31
2023-09-25T01:26:55.909Z,101694.53
2023-09-25T01:29:30.501Z,101688.53
2023-09-25T01:31:57.430Z,101676.31
2023-09-25T01:34:24.996Z,101683.38
2023-09-25T01:36:52.197Z,101690.41
2023-09-25T01:39:24.473Z,101679.13
2023-09-25T01:41:51.453Z,101675.59
2023-09-25T01:44:21.126Z,101679.47
2023-09-25T01:46:49.025Z,101674.59
2023-09-25T01:49:16.012Z,101672.56
2023-09-25T01:52:00.121Z,101669.31
2023-09-25T01:54:31.383Z,101676.72
2023-09-25T01:56:58.527Z,101669.00
2023-09-25T01:59:25.726Z,101668.44
2023-09-25T02:01:54.116Z,101670.63
2023-09-25T02:04:30.397Z,101680.84
2023-09-25T02:06:57.510Z,101689.28
2023-09-25T02:09:24.649Z,101682.06
2023-09-25T02:11:51.721Z,101678.91
2023-09-25T02:14:19.218Z,101663.22
2023-09-25T02:16:46.363Z,101668.19
2023-09-25T02:19:17.211Z,101670.03
2023-09-25T02:21:44.650Z,101668.63
2023-09-25T02:24:11.861Z,101674.56
2023-09-25T02:26:38.899Z,101672.38
2023-09-25T02:29:06.032Z,101671.75
2023-09-25T02:31:42.779Z,101676.09
2023-09-25T02:34:15.827Z,101672.72
2023-09-25T02:36:55.311Z,101666.78
2023-09-25T02:39:23.302Z,101673.47
2023-09-25T02:41:50.337Z,101671.84
2023-09-25T02:44:17.827Z,101674.09
2023-09-25T02:46:44.739Z,101665.31
2023-09-25T02:49:14.214Z,101670.78
2023-09-25T02:51:41.639Z,101667.88
2023-09-25T02:54:11.549Z,101659.50
2023-09-25T02:56:38.600Z,101655.38
2023-09-25T02:59:14.993Z,101651.38
2023-09-25T03:01:41.922Z,101643.06
2023-09-25T03:04:09.082Z,101650.41
2023-09-25T03:06:39.300Z,101653.22
2023-09-25T03:09:10.373Z,101655.91
2023-09-25T03:11:42.303Z,101660.91
2023-09-25T03:14:15.713Z,101667.91
2023-09-25T03:16:47.161Z,101674.38
2023-09-25T03:19:18.092Z,101672.72
2023-09-25T03:21:48.348Z,101670.84
2023-09-25T03:24:18.149Z,101677.75
2023-09-25T03:26:59.734Z,101673.25
2023-09-25T03:29:33.053Z,101675.72
2023-09-25T03:32:01.720Z,101680.09
2023-09-25T03:34:29.010Z,101677.94
2023-09-25T03:36:57.121Z,101681.66
2023-09-25T03:39:27.891Z,101683.47
2023-09-25T03:41:57.258Z,101681.09
2023-09-25T03:44:25.352Z,101698.34
2023-09-25T03:46:52.564Z,101703.34
2023-09-25T03:49:22.386Z,101689.22
2023-09-25T03:51:50.384Z,101692.31
2023-09-25T03:54:17.559Z,101696.47
2023-09-25T03:56:48.367Z,101695.28
2023-09-25T03:59:16.386Z,101697.75
2023-09-25T04:01:43.507Z,101695.84
2023-09-25T04:04:10.607Z,101701.59
2023-09-25T04:06:37.727Z,101708.56
2023-09-25T04:09:11.697Z,101709.38
2023-09-25T04:11:38.590Z,101714.50
2023-09-25T04:14:05.569Z,101705.56
2023-09-25T04:16:34.692Z,101718.41
2023-09-25T04:19:06.234Z,101721.19
2023-09-25T04:21:34.290Z,101716.28
2023-09-25T04:24:04.173Z,101707.94
2023-09-25T04:26:35.147Z,101722.13
2023-09-25T04:29:04.105Z,101722.56
2023-09-25T04:31:33.210Z,101726.03
2023-09-25T04:34:00.532Z,101735.50
2023-09-25T04:36:27.415Z,101725.72
2023-09-25T04:38:54.506Z,101725.38
2023-09-25T04:41:23.559Z,101726.13
2023-09-25T04:43:51.723Z,101725.19
2023-09-25T04:46:18.768Z,101725.03
2023-09-25T04:48:45.754Z,101726.66
2023-09-25T04:51:16.654Z,101722.69
2023-09-25T04:53:44.607Z,101729.75
2023-09-25T04:56:11.680Z,101726.34
2023-09-25T04:58:39.714Z,101731.94
2023-09-25T05:01:06.909Z,101735.34
2023-09-25T05:03:34.783Z,101727.19
2023-09-25T05:06:06.693Z,101728.56
2023-09-25T05:08:34.432Z,101728.69
2023-09-25T05:11:01.447Z,101733.59
2023-09-25T05:13:28.916Z,101733.59
2023-09-25T05:15:57.132Z,101733.09
2023-09-25T05:18:27.648Z,101739.81
2023-09-25T05:20:55.575Z,101741.97
2023-09-25T05:23:22.546Z,101743.16
2023-09-25T05:25:49.458Z,101745.00
2023-09-25T05:28:16.649Z,101748.81
2023-09-25T05:30:43.860Z,101743.53
2023-09-25T05:33:10.877Z,101750.44
2023-09-25T05:35:41.947Z,101747.41
2023-09-25T05:38:10.856Z,101751.44
2023-09-25T05:40:41.297Z,101754.22
2023-09-25T05:43:09.230Z,101757.13
2023-09-25T05:45:36.235Z,101770.19
2023-09-25T05:48:05.570Z,101764.41
2023-09-25T05:50:35.470Z,101770.44
2023-09-25T05:53:04.334Z,101758.97
2023-09-25T05:55:31.648Z,101774.75
2023-09-25T05:57:58.779Z,101769.41
2023-09-25T06:00:28.537Z,101773.22
2023-09-25T06:02:59.321Z,101775.91
2023-09-25T06:05:38.100Z,101771.84
2023-09-25T06:08:05.524Z,101768.56
2023-09-25T06:10:32.369Z,101771.94
2023-09-25T06:12:59.604Z,101770.16
2023-09-25T06:15:27.356Z,101765.97
2023-09-25T06:17:54.446Z,101769.69
2023-09-25T06:20:22.057Z,101768.47
2023-09-25T06:22:49.442Z,101765.22
2023-09-25T06:25:20.356Z,101768.69
2023-09-25T06:27:48.079Z,101764.66
2023-09-25T06:30:16.202Z,101764.34
2023-09-25T06:32:43.240Z,101761.91
2023-09-25T06:35:10.572Z,101773.84
2023-09-25T06:37:39.440Z,101777.13
2023-09-25T06:40:11.899Z,101779.91
2023-09-25T06:42:40.810Z,101783.63
2023-09-25T06:45:08.831Z,101784.75
2023-09-25T06:47:36.450Z,101786.91
2023-09-25T06:50:04.189Z,101780.41
2023-09-25T06:52:31.538Z,101782.44
2023-09-25T06:54:58.882Z,101779.66
2023-09-25T06:57:27.197Z,101780.03
2023-09-25T06:59:54.359Z,101786.78
2023-09-25T07:02:24.714Z,101784.53
2023-09-25T07:04:54.270Z,101788.13
2023-09-25T07:07:23.959Z,101780.34
2023-09-25T07:09:51.897Z,101786.56
2023-09-25T07:12:19.928Z,101779.06
2023-09-25T07:14:53.447Z,101784.00
2023-09-25T07:17:21.616Z,101786.59
2023-09-25T07:19:54.636Z,101793.56
2023-09-25T07:22:24.430Z,101795.88
2023-09-25T07:24:52.244Z,101801.09
2023-09-25T07:27:26.413Z,101797.53
2023-09-25T07:29:53.512Z,101800.66
2023-09-25T07:32:20.855Z,101805.13
2023-09-25T07:34:48.095Z,101811.78
2023-09-25T07:37:15.239Z,101808.59
2023-09-25T07:39:42.885Z,101819.03
2023-09-25T07:42:10.567Z,101813.06
2023-09-25T07:44:46.742Z,101813.94
2023-09-25T07:47:23.306Z,101806.47
2023-09-25T07:49:50.563Z,101806.75
2023-09-25T07:52:17.884Z,101798.75
2023-09-25T07:54:51.580Z,101808.81
2023-09-25T07:57:22.807Z,101815.19
2023-09-25T07:59:50.778Z,101798.34
2023-09-25T08:02:22.195Z,101811.06
2023-09-25T08:04:54.492Z,101807.13
2023-09-25T08:07:21.849Z,101812.06
2023-09-25T08:09:49.107Z,101807.88
2023-09-25T08:12:16.296Z,101815.88
2023-09-25T08:14:46.660Z,101816.84
2023-09-25T08:17:16.350Z,101807.19
2023-09-25T08:19:49.286Z,101824.56
2023-09-25T08:22:16.344Z,101830.34
2023-09-25T08:24:43.653Z,101817.88
2023-09-25T08:27:10.781Z,101826.22
2023-09-25T08:29:37.920Z,101817.22
2023-09-25T08:32:05.009Z,101821.16
2023-09-25T08:34:40.008Z,101815.22
2023-09-25T08:37:07.657Z,101823.25
2023-09-25T08:39:35.670Z,101829.56
2023-09-25T08:42:02.818Z,101810.63
2023-09-25T08:44:33.598Z,101817.91
2023-09-25T08:47:01.074Z,101811.44
2023-09-25T08:49:28.806Z,101814.69
2023-09-25T08:51:57.214Z,101812.69
2023-09-25T08:54:24.483Z,101811.47
2023-09-25T08:56:51.867Z,101811.53
2023-09-25T08:59:20.699Z,101819.81
2023-09-25T09:01:48.142Z,101811.22
2023-09-25T09:04:17.447Z,101810.25
2023-09-25T09:06:44.611Z,101812.59
2023-09-25T09:09:14.164Z,101810.28
2023-09-25T09:11:51.032Z,101810.84
2023-09-25T09:14:47.474Z,101802.34
2023-09-25T09:17:17.150Z,101811.88
2023-09-25T09:19:53.249Z,101803.44
2023-09-25T09:22:23.312Z,101800.03
2023-09-25T09:24:54.851Z,101805.38
2023-09-25T09:27:22.224Z,101795.00
2023-09-25T09:29:59.924Z,101804.22
2023-09-25T09:32:28.354Z,101796.44
2023-09-25T09:34:59.716Z,101790.34
2023-09-25T09:37:30.240Z,101797.09
2023-09-25T09:39:59.680Z,101789.31
2023-09-25T09:42:31.413Z,101796.69
2023-09-25T09:44:58.940Z,101791.06
2023-09-25T09:47:27.980Z,101789.91
2023-09-25T09:49:56.135Z,101800.59
2023-09-25T09:52:23.868Z,101788.50
2023-09-25T09:54:52.464Z,101784.97
2023-09-25T09:57:21.009Z,101792.34
2023-09-25T09:59:50.470Z,101788.88
2023-09-25T10:02:18.107Z,101785.44
2023-09-25T10:04:46.210Z,101784.25
2023-09-25T10:07:14.234Z,101782.19
2023-09-25T10:10:07.984Z,101781.91
2023-09-25T10:12:58.464Z,101775.50
2023-09-25T10:15:27.106Z,101771.94
2023-09-25T10:17:55.807Z,101767.03
2023-09-25T10:23:22.615Z,101771.75
2023-09-25T10:26:01.794Z,101766.00
2023-09-25T10:28:30.942Z,101767.97
2023-09-25T10:30:59.543Z,101766.50
2023-09-25T10:33:57.155Z,101764.41
2023-09-25T10:36:38.442Z,101762.09
2023-09-25T10:39:09.919Z,101769.41
2023-09-25T10:41:38.928Z,101764.53
2023-09-25T10:44:06.682Z,101770.72
2023-09-25T10:46:33.884Z,101759.69
2023-09-25T10:49:02.082Z,101771.78
2023-09-25T10:51:29.374Z,101763.34
2023-09-25T10:53:59.231Z,101758.72
2023-09-25T10:56:26.595Z,101761.66
2023-09-25T10:58:56.385Z,101762.66
2023-09-25T11:01:30.765Z,101757.75
2023-09-25T11:04:02.770Z,101758.88
2023-09-25T11:06:30.801Z,101754.41
2023-09-25T11:09:25.941Z,101746.75
2023-09-25T11:11:55.064Z,101745.53
2023-09-25T11:14:23.371Z,101740.28
2023-09-25T11:16:52.512Z,101741.31
2023-09-25T11:19:19.584Z,101737.44
2023-09-25T11:21:48.371Z,101736.97
2023-09-25T11:24:15.738Z,101737.78
2023-09-25T11:26:45.844Z,101737.78
2023-09-25T11:29:13.887Z,101735.91
2023-09-25T11:32:02.011Z,101726.59
2023-09-25T11:34:30.787Z,101729.34
2023-09-25T11:37:01.620Z,101729.09
2023-09-25T11:39:28.911Z,101732.75
2023-09-25T11:41:55.957Z,101737.44
2023-09-25T11:44:23.153Z,101727.47
2023-09-25T11:46:51.024Z,101730.03
2023-09-25T11:49:18.844Z,101712.06
2023-09-25T11:51:45.990Z,101717.41
2023-09-25T11:54:13.552Z,101721.34
2023-09-25T11:56:44.837Z,101718.59
2023-09-25T11:59:17.534Z,101722.53
2023-09-25T12:01:49.593Z,101722.66
2023-09-25T12:04:17.733Z,101717.56
2023-09-25T12:06:47.965Z,101713.44
2023-09-25T12:09:15.098Z,101709.81
2023-09-25T12:11:43.478Z,101713.56
2023-09-25T12:14:10.393Z,101710.47
2023-09-25T12:16:39.423Z,101700.78
2023-09-25T12:19:06.753Z,101692.13
2023-09-25T12:21:33.927Z,101697.78
2023-09-25T12:24:01.945Z,101694.94
2023-09-25T12:26:29.222Z,101699.72
2023-09-25T12:28:56.764Z,101699.03
2023-09-25T12:31:23.923Z,101709.63
2023-09-25T12:33:53.019Z,101708.47
2023-09-25T12:36:21.254Z,101697.72
2023-09-25T12:38:52.340Z,101697.50
2023-09-25T12:41:19.707Z,101698.47
2023-09-25T12:43:50.089Z,101688.97
2023-09-25T12:46:25.722Z,101690.63
2023-09-25T12:48:54.042Z,101683.88
2023-09-25T12:51:21.389Z,101696.19
2023-09-25T12:53:49.372Z,101691.88
2023-09-25T12:56:17.274Z,101690.00
2023-09-25T12:58:45.605Z,101688.25
2023-09-25T13:01:13.386Z,101693.41
2023-09-25T13:03:40.917Z,101689.59
2023-09-25T13:06:08.158Z,101681.19
2023-09-25T13:08:38.406Z,101683.88
2023-09-25T13:11:05.380Z,101688.63
2023-09-25T13:13:37.099Z,101687.84
2023-09-25T13:16:04.353Z,101673.31
2023-09-25T13:18:31.565Z,101671.00
2023-09-25T13:20:59.012Z,101674.56
2023-09-25T13:23:26.421Z,101670.06
2023-09-25T13:25:53.644Z,101668.16
2023-09-25T13:28:20.836Z,101658.75
2023-09-25T13:30:48.752Z,101663.25
2023-09-25T13:33:15.836Z,101662.09
2023-09-25T13:35:45.884Z,101659.53
2023-09-25T13:38:13.102Z,101666.59
2023-09-25T13:40:40.296Z,101665.81
2023-09-25T13:43:07.587Z,101660.66
2023-09-25T13:45:35.094Z,101652.31
2023-09-25T13:48:02.247Z,101652.91
2023-09-25T13:50:29.393Z,101659.53
2023-09-25T13:52:59.884Z,101650.66
2023-09-25T13:55:29.414Z,101649.72
2023-09-25T13:57:59.193Z,101658.59
2023-09-25T14:00:26.552Z,101663.13
2023-09-25T14:02:55.108Z,101662.22
2023-09-25T14:05:23.885Z,101657.22
2023-09-25T14:07:51.245Z,101659.31
2023-09-25T14:10:18.415Z,101646.09
2023-09-25T14:12:46.942Z,101643.78
2023-09-25T14:15:15.675Z,101634.09
2023-09-25T14:17:47.299Z,101635.94
2023-09-25T14:20:14.660Z,101640.31
2023-09-25T14:22:41.777Z,101643.66
2023-09-25T14:25:09.691Z,101641.75
2023-09-25T14:27:36.995Z,101646.84
2023-09-25T14:30:04.828Z,101651.44
2023-09-25T14:32:35.332Z,101651.91
2023-09-25T14:35:02.409Z,101641.09
2023-09-25T14:37:29.668Z,101641.94
2023-09-25T14:39:57.445Z,101642.22
2023-09-25T14:42:24.852Z,101639.94
2023-09-25T14:44:55.029Z,101639.38
2023-09-25T14:47:22.940Z,101641.06
2023-09-25T14:49:53.929Z,101634.34
2023-09-25T14:52:23.754Z,101639.09
2023-09-25T14:54:51.365Z,101638.97
2023-09-25T14:57:18.901Z,101633.59
2023-09-25T14:59:45.927Z,101632.53
2023-09-25T15:02:14.518Z,101615.50
2023-09-25T15:04:43.306Z,101620.28
2023-09-25T15:07:10.462Z,101624.63
2023-09-25T15:09:39.080Z,101632.19
2023-09-25T15:12:08.200Z,101627.66
2023-09-25T15:14:43.130Z,101627.88
2023-09-25T15:17:13.700Z,101629.78
2023-09-25T15:19:41.964Z,101622.69
2023-09-25T15:22:09.289Z,101622.28
2023-09-25T15:24:36.518Z,101626.69
2023-09-25T15:27:05.127Z,101621.69
2023-09-25T15:29:32.682Z,101631.56
2023-09-25T15:32:03.668Z,101624.56
2023-09-25T15:34:31.638Z,101622.88
2023-09-25T15:36:59.323Z,101629.78
2023-09-25T15:39:27.955Z,101639.94
2023-09-25T15:41:55.147Z,101628.81
2023-09-25T15:44:23.656Z,101627.69
2023-09-25T15:46:54.139Z,101631.81
2023-09-25T15:49:22.822Z,101620.03
2023-09-25T15:51:50.067Z,101621.94
2023-09-25T15:54:17.097Z,101625.00
2023-09-25T15:56:44.176Z,101629.41
2023-09-25T15:59:14.841Z,101636.47
2023-09-25T16:01:42.338Z,101637.22
2023-09-25T16:04:17.012Z,101629.19
2023-09-25T16:06:48.655Z,101628.31
2023-09-25T16:09:15.810Z,101628.78
2023-09-25T16:11:42.792Z,101642.31
2023-09-25T16:14:10.031Z,101641.09
2023-09-25T16:16:40.354Z,101639.81
2023-09-25T16:19:11.310Z,101632.72
2023-09-25T16:21:41.590Z,101631.09
2023-09-25T16:24:08.901Z,101640.72
2023-09-25T16:26:36.042Z,101632.06
2023-09-25T16:29:04.637Z,101644.88
2023-09-25T16:31:31.593Z,101643.53
2023-09-25T16:33:58.802Z,101650.63
2023-09-25T16:36:25.899Z,101652.44
2023-09-25T16:38:52.870Z,101647.34
2023-09-25T16:41:21.191Z,101650.81
2023-09-25T16:43:48.590Z,101639.69
2023-09-25T16:46:18.775Z,101643.34
2023-09-25T16:48:45.858Z,101645.94
2023-09-25T16:51:15.598Z,101650.81
2023-09-25T16:53:43.865Z,101653.28
2023-09-25T16:56:14.239Z,101655.66
2023-09-25T16:58:41.635Z,101663.47
2023-09-25T17:03:41.538Z,101659.69
2023-09-25T17:06:10.888Z,101655.69
2023-09-25T17:08:38.361Z,101664.00
2023-09-25T17:11:07.653Z,101664.28
2023-09-25T17:13:34.711Z,101662.53
2023-09-25T17:16:08.323Z,101665.41
2023-09-25T17:18:35.590Z,101658.50
2023-09-25T17:21:03.104Z,101665.59
2023-09-25T17:23:30.454Z,101663.38
2023-09-25T17:25:57.607Z,101671.66
2023-09-25T17:28:24.962Z,101672.00
2023-09-25T17:31:08.539Z,101681.88
2023-09-25T17:33:36.513Z,101680.94
2023-09-25T17:38:35.616Z,101679.84
2023-09-25T17:41:05.603Z,101677.78
2023-09-25T17:43:32.621Z,101682.41
2023-09-25T17:46:04.132Z,101677.59
2023-09-25T17:48:32.923Z,101687.53
2023-09-25T17:51:05.324Z,101678.59
2023-09-25T17:53:37.010Z,101683.94
2023-09-25T17:56:05.470Z,101682.69
2023-09-25T17:58:34.857Z,101682.69
2023-09-25T18:01:02.685Z,101678.78
2023-09-25T18:03:30.681Z,101683.69
2023-09-25T18:05:58.106Z,101687.31
2023-09-25T18:08:30.732Z,101693.63
2023-09-25T18:10:58.504Z,101695.44
2023-09-25T18:13:31.029Z,101701.38
2023-09-25T18:16:01.031Z,101690.72
2023-09-25T18:18:28.123Z,101690.25
2023-09-25T18:20:57.536Z,101695.91
2023-09-25T18:23:25.193Z,101692.63
2023-09-25T18:25:55.189Z,101688.69
2023-09-25T18:28:26.868Z,101695.38
2023-09-25T18:30:57.590Z,101701.84
2023-09-25T18:33:24.674Z,101700.81
2023-09-25T18:35:51.707Z,101707.03
2023-09-25T18:38:18.750Z,101708.06
2023-09-25T18:40:45.901Z,101711.44
2023-09-25T18:43:12.879Z,101712.06
2023-09-25T18:45:40.030Z,101709.81
2023-09-25T18:48:10.628Z,101720.09
2023-09-25T18:50:43.123Z,101725.97
2023-09-25T18:53:11.090Z,101725.69
2023-09-25T18:55:45.771Z,101728.69
2023-09-25T18:58:14.428Z,101737.72
2023-09-25T19:00:50.382Z,101741.56
2023-09-25T19:03:21.290Z,101737.78
2023-09-25T19:05:55.607Z,101742.78
2023-09-25T19:08:30.671Z,101740.25
2023-09-25T19:13:51.891Z,101741.22
2023-09-25T19:16:19.059Z,101736.97
2023-09-25T19:18:46.310Z,101732.69
2023-09-25T19:21:17.219Z,101740.06
2023-09-25T19:23:52.985Z,101743.94
2023-09-25T19:26:20.125Z,101743.53
2023-09-25T19:28:47.246Z,101754.38
2023-09-25T19:31:36.805Z,101763.19
2023-09-25T19:34:03.603Z,101760.28
2023-09-25T19:36:30.846Z,101767.31
2023-09-25T19:39:00.347Z,101767.88
2023-09-25T19:41:32.232Z,101768.81
2023-09-25T19:43:59.554Z,101773.75
2023-09-25T19:46:27.005Z,101769.91
2023-09-25T19:48:54.359Z,101770.13
2023-09-25T19:51:22.527Z,101784.00
2023-09-25T19:53:51.877Z,101787.88
2023-09-25T19:56:19.091Z,101783.84
2023-09-25T19:58:46.086Z,101789.19
2023-09-25T20:01:14.542Z,101796.03
2023-09-25T20:03:43.588Z,101792.72
2023-09-25T20:06:14.664Z,101792.56
2023-09-25T20:08:42.156Z,101790.78
2023-09-25T20:11:11.501Z,101791.03
2023-09-25T20:14:00.015Z,101791.69
2023-09-25T20:16:27.339Z,101791.66
2023-09-25T20:18:54.623Z,101811.50
2023-09-25T20:21:26.781Z,101800.03
2023-09-25T20:23:56.548Z,101800.31
2023-09-25T20:26:26.916Z,101790.84
2023-09-25T20:28:54.175Z,101797.34
2023-09-25T20:31:23.048Z,101804.72
2023-09-25T20:33:57.601Z,101804.38
2023-09-25T20:36:25.204Z,101812.28
2023-09-25T20:38:53.608Z,101800.13
2023-09-25T20:41:27.306Z,101803.44
2023-09-25T20:43:54.573Z,101801.69
2023-09-25T20:46:23.169Z,101800.34
2023-09-25T20:48:54.138Z,101789.75
2023-09-25T20:51:37.152Z,101808.81
2023-09-25T20:54:04.711Z,101811.16
2023-09-25T20:56:31.672Z,101796.19
2023-09-25T20:59:01.881Z,101797.41
2023-09-25T21:01:29.629Z,101782.09
2023-09-25T21:03:56.931Z,101780.66
2023-09-25T21:06:24.170Z,101783.97
2023-09-25T21:08:53.450Z,101779.19
2023-09-25T21:11:28.357Z,101781.41
2023-09-25T21:14:05.232Z,101789.63
2023-09-25T21:16:37.915Z,101784.28
2023-09-25T21:19:05.557Z,101779.97
2023-09-25T21:21:32.625Z,101780.50
2023-09-25T21:24:03.954Z,101771.16
2023-09-25T21:26:35.289Z,101781.41
2023-09-25T21:29:04.464Z,101786.34
2023-09-25T21:31:33.553Z,101781.25
2023-09-25T21:34:05.660Z,101784.41
2023-09-25T21:36:32.767Z,101782.16
2023-09-25T21:39:00.016Z,101787.31
2023-09-25T21:41:27.037Z,101786.34
2023-09-25T21:43:54.236Z,101779.06
2023-09-25T21:46:22.867Z,101786.28
2023-09-25T21:48:50.271Z,101790.03
2023-09-25T21:51:17.891Z,101785.00
2023-09-25T21:53:45.049Z,101782.16
2023-09-25T21:56:14.579Z,101777.78
2023-09-25T21:58:45.579Z,101776.28
2023-09-25T22:01:12.884Z,101771.56
2023-09-25T22:03:42.511Z,101768.72
2023-09-25T22:06:09.818Z,101775.09
2023-09-25T22:08:37.157Z,101781.72
2023-09-25T22:11:07.577Z,101776.38
2023-09-25T22:13:38.324Z,101764.06
2023-09-25T22:16:09.859Z,101759.75
2023-09-25T22:18:40.805Z,101765.97
2023-09-25T22:21:12.947Z,101771.47
2023-09-25T22:23:40.519Z,101766.72
2023-09-25T22:26:08.765Z,101768.22
2023-09-25T22:28:37.014Z,101780.97
2023-09-25T22:31:05.994Z,101785.16
2023-09-25T22:33:34.379Z,101785.72
2023-09-25T22:36:01.450Z,101780.13
2023-09-25T22:38:28.676Z,101775.81
2023-09-25T22:40:56.135Z,101769.91
2023-09-25T22:43:23.178Z,101776.81
2023-09-25T22:45:52.831Z,101775.94
2023-09-25T22:48:19.965Z,101768.34
2023-09-25T22:50:47.355Z,101770.53
2023-09-25T22:53:14.711Z,101758.56
2023-09-25T22:55:43.926Z,101761.06
2023-09-25T22:58:11.131Z,101766.19
2023-09-25T23:00:39.016Z,101751.78
2023-09-25T23:03:06.601Z,101761.81
2023-09-25T23:05:34.413Z,101753.28
2023-09-25T23:08:01.485Z,101761.31
2023-09-25T23:10:35.090Z,101752.13
2023-09-25T23:13:02.309Z,101746.78
2023-09-25T23:15:29.253Z,101747.78
2023-09-25T23:17:56.452Z,101749.44
2023-09-25T23:20:26.533Z,101754.72
2023-09-25T23:22:57.866Z,101757.94
2023-09-25T23:25:26.606Z,101762.25
2023-09-25T23:27:54.376Z,101768.88
2023-09-25T23:30:23.633Z,101759.81
2023-09-25T23:32:59.122Z,101768.22
2023-09-25T23:35:32.143Z,101762.97
2023-09-25T23:37:59.716Z,101762.81
2023-09-25T23:40:26.820Z,101768.88
2023-09-25T23:42:55.143Z,101769.03
2023-09-25T23:45:24.065Z,101776.50
2023-09-25T23:47:51.616Z,101782.38
2023-09-25T23:50:21.158Z,101785.50
2023-09-25T23:52:49.477Z,101782.31
2023-09-25T23:55:16.681Z,101777.56
2023-09-25T23:57:46.727Z,101785.59
